Time;durP1;ratioP1;P1;durP2;ratioP2;P2;SDS_P1;SDS_P2;PMS_P1;PMS_P2;Temp;Humidity;BMP_temperature;BMP_pressure;BME280_temperature;BME280_humidity;BME280_pressure;Samples;Min_cycle;Max_cycle;Signal;HPM_P1;HPM_P2
2022/10/01 00:01:56;;;;;;;19.45;5.10;;;;;;;11.77;100.00;97176.88;5062435;28;20506;-82
2022/10/01 00:04:22;;;;;;;27.23;5.93;;;;;;;11.83;100.00;97178.53;5068495;28;20028;-81
2022/10/01 00:06:48;;;;;;;18.45;4.68;;;;;;;11.96;100.00;97174.69;5042499;28;20044;-81
2022/10/01 00:09:13;;;;;;;18.30;5.43;;;;;;;11.99;100.00;97179.47;5062202;28;20119;-81
2022/10/01 00:11:40;;;;;;;13.43;4.20;;;;;;;12.00;100.00;97177.63;5059823;28;20107;-81
2022/10/01 00:14:05;;;;;;;17.60;4.20;;;;;;;11.98;100.00;97190.22;5060608;28;20131;-81
2022/10/01 00:16:31;;;;;;;18.55;4.10;;;;;;;12.06;100.00;97191.63;5064029;28;20479;-82
2022/10/01 00:18:57;;;;;;;16.10;3.90;;;;;;;12.04;100.00;97186.63;5062899;28;20103;-81
2022/10/01 00:21:26;;;;;;;19.65;4.65;;;;;;;11.96;100.00;97190.47;5061889;28;20086;-82
2022/10/01 00:23:56;;;;;;;20.45;3.50;;;;;;;11.82;100.00;97190.09;5063218;28;20082;-81
2022/10/01 00:26:26;;;;;;;14.55;3.40;;;;;;;11.84;100.00;97188.00;5057833;28;20039;-82
2022/10/01 00:28:57;;;;;;;19.08;3.80;;;;;;;11.67;100.00;97189.94;5058918;28;20043;-82
2022/10/01 00:31:24;;;;;;;17.70;3.67;;;;;;;11.76;100.00;97175.28;5062008;28;20032;-81
2022/10/01 00:33:54;;;;;;;11.95;3.15;;;;;;;11.74;100.00;97189.75;5059884;28;20532;-81
2022/10/01 00:36:20;;;;;;;14.98;2.83;;;;;;;11.72;100.00;97187.34;5057744;28;20052;-81
2022/10/01 00:38:47;;;;;;;17.33;3.13;;;;;;;11.51;100.00;97173.22;5060802;28;20056;-82
2022/10/01 00:41:14;;;;;;;6.20;2.40;;;;;;;11.63;100.00;97194.88;5061158;28;20060;-82
2022/10/01 00:43:49;;;;;;;8.80;2.58;;;;;;;11.64;100.00;97193.06;5061966;28;20499;-82
2022/10/01 00:46:21;;;;;;;10.77;2.85;;;;;;;11.66;100.00;97196.22;5060324;28;20425;-82
2022/10/01 00:48:57;;;;;;;14.50;2.97;;;;;;;11.71;100.00;97218.09;5064089;28;20045;-81
2022/10/01 00:51:25;;;;;;;10.05;2.25;;;;;;;11.73;100.00;97207.31;5059637;28;20029;-81
2022/10/01 00:53:53;;;;;;;10.32;2.85;;;;;;;11.80;100.00;97212.41;5060643;28;20037;-80
2022/10/01 00:56:19;;;;;;;9.70;2.30;;;;;;;11.94;100.00;97215.41;5060237;28;20055;-81
2022/10/01 00:58:45;;;;;;;13.43;2.38;;;;;;;11.99;100.00;97232.03;5059548;28;20064;-81
2022/10/01 01:01:10;;;;;;;14.65;2.80;;;;;;;11.96;100.00;97222.03;5065242;28;20041;-80
2022/10/01 01:03:36;;;;;;;10.07;2.17;;;;;;;12.02;100.00;97214.22;5061974;28;20039;-81
2022/10/01 01:06:02;;;;;;;13.07;2.92;;;;;;;11.88;100.00;97225.09;5060070;28;20082;-81
2022/10/01 01:08:28;;;;;;;8.73;2.25;;;;;;;11.88;100.00;97216.41;5060509;28;20474;-82
2022/10/01 01:11:11;;;;;;;10.38;1.92;;;;;;;12.04;100.00;97233.97;5061371;28;20025;-81
2022/10/01 01:13:59;;;;;;;12.38;2.83;;;;;;;11.95;100.00;97222.25;5057247;28;20024;-81
2022/10/01 01:16:32;;;;;;;8.95;2.13;;;;;;;11.96;100.00;97240.44;5058723;28;20119;-81
2022/10/01 01:19:11;;;;;;;10.32;3.05;;;;;;;11.82;100.00;97234.78;5060228;28;20135;-81
2022/10/01 01:21:44;;;;;;;18.20;3.47;;;;;;;11.92;100.00;97244.59;5060699;28;20086;-82
2022/10/01 01:24:51;;;;;;;23.80;3.65;;;;;;;11.88;100.00;97240.09;5063935;28;20060;-81
2022/10/01 01:27:39;;;;;;;14.63;3.20;;;;;;;11.91;100.00;97242.22;5038725;28;20033;-81
2022/10/01 01:30:13;;;;;;;12.48;3.05;;;;;;;11.84;100.00;97250.28;5017984;28;20029;-81
2022/10/01 01:33:02;;;;;;;16.02;3.13;;;;;;;11.95;100.00;97241.47;5049643;28;20045;-80
2022/10/01 01:35:39;;;;;;;14.35;2.90;;;;;;;12.13;100.00;97242.97;5058366;28;20044;-80
2022/10/01 01:38:27;;;;;;;14.15;3.25;;;;;;;12.31;100.00;97253.41;5054566;28;20028;-81
2022/10/01 01:40:59;;;;;;;15.23;3.97;;;;;;;12.06;100.00;97255.53;5061832;28;20383;-82
2022/10/01 01:43:39;;;;;;;20.00;3.40;;;;;;;11.98;100.00;97234.91;5061515;28;20090;-81
2022/10/01 01:46:09;;;;;;;18.13;3.60;;;;;;;12.07;100.00;97261.59;5058622;28;20025;-82
2022/10/01 01:48:37;;;;;;;21.05;3.95;;;;;;;11.94;100.00;97249.59;5059655;28;20045;-81
2022/10/01 01:51:26;;;;;;;17.05;3.33;;;;;;;11.85;100.00;97265.00;5062532;28;20024;-81
2022/10/01 01:53:52;;;;;;;13.77;3.17;;;;;;;12.10;100.00;97269.78;5060496;28;20150;-81
2022/10/01 01:56:18;;;;;;;11.95;3.80;;;;;;;11.99;100.00;97252.31;5060734;28;20037;-82
2022/10/01 01:58:45;;;;;;;20.05;4.47;;;;;;;11.97;100.00;97265.69;5065121;28;20478;-82
2022/10/01 02:01:32;;;;;;;20.48;5.07;;;;;;;12.06;100.00;97288.94;5056432;28;20500;-81
2022/10/01 02:03:59;;;;;;;17.25;4.43;;;;;;;11.88;100.00;97290.03;5063282;28;20060;-81
2022/10/01 02:07:07;;;;;;;12.57;4.18;;;;;;;11.95;100.00;97288.81;5060056;28;20107;-81
2022/10/01 02:09:42;;;;;;;15.98;4.38;;;;;;;11.94;100.00;97291.66;5061971;28;20368;-81
2022/10/01 02:12:36;;;;;;;17.70;4.30;;;;;;;11.88;100.00;97297.91;5065268;28;20131;-81
2022/10/01 02:15:19;;;;;;;25.95;4.95;;;;;;;11.96;100.00;97306.16;5057887;28;20107;-81
2022/10/01 02:17:58;;;;;;;18.48;6.53;;;;;;;11.67;100.00;97298.47;5058701;28;20032;-80
2022/10/01 02:20:37;;;;;;;19.92;4.97;;;;;;;11.61;100.00;97294.19;5062049;28;20033;-81
2022/10/01 02:23:10;;;;;;;19.48;4.63;;;;;;;11.47;100.00;97299.00;5065796;28;20027;-81
2022/10/01 02:25:43;;;;;;;17.30;4.72;;;;;;;11.51;100.00;97304.59;5065543;28;20470;-81
2022/10/01 02:28:14;;;;;;;21.00;5.25;;;;;;;11.45;100.00;97297.66;5062748;28;20035;-81
2022/10/01 02:30:43;;;;;;;17.05;4.90;;;;;;;11.46;100.00;97307.94;5065258;28;20029;-81
2022/10/01 02:33:12;;;;;;;23.20;5.70;;;;;;;11.49;100.00;97322.41;5065123;28;20074;-81
2022/10/01 02:35:42;;;;;;;19.25;5.22;;;;;;;11.47;100.00;97316.59;5064572;28;20033;-81
2022/10/01 02:38:08;;;;;;;25.40;6.03;;;;;;;11.27;100.00;97313.47;5066113;28;20575;-80
2022/10/01 02:40:38;;;;;;;19.95;5.50;;;;;;;11.38;100.00;97310.97;5061158;28;20085;-80
2022/10/01 02:43:12;;;;;;;15.27;5.18;;;;;;;11.43;100.00;97321.56;5068746;28;20047;-80
2022/10/01 02:45:40;;;;;;;24.27;5.57;;;;;;;11.46;100.00;97315.81;5059106;28;20028;-81
2022/10/01 02:48:08;;;;;;;15.98;5.10;;;;;;;11.49;100.00;97328.47;5065748;28;20036;-80
2022/10/01 02:50:45;;;;;;;24.98;5.80;;;;;;;11.45;100.00;97326.56;5062751;28;20020;-81
2022/10/01 02:53:51;;;;;;;15.43;5.65;;;;;;;11.63;100.00;97328.91;5068647;28;20028;-82
2022/10/01 02:57:21;;;;;;;22.55;6.13;;;;;;;11.53;100.00;97336.66;5035465;28;20033;-82
2022/10/01 02:59:06;;;;;;;16.98;6.70;;;;;;;11.50;100.00;97351.06;5061778;28;20033;-81
2022/10/01 03:01:36;;;;;;;25.38;7.78;;;;;;;11.52;100.00;97343.75;5065519;28;20079;-81
2022/10/01 03:04:01;;;;;;;21.95;7.55;;;;;;;11.61;100.00;97349.38;5064617;28;20086;-81
2022/10/01 03:06:27;;;;;;;27.35;7.38;;;;;;;11.56;100.00;97362.44;5063862;28;20028;-81
2022/10/01 03:08:53;;;;;;;24.00;8.73;;;;;;;11.36;100.00;97362.94;5063549;28;20052;-82
2022/10/01 03:11:19;;;;;;;18.48;7.05;;;;;;;11.41;100.00;97366.44;5059533;28;20021;-82
2022/10/01 03:13:45;;;;;;;19.73;6.97;;;;;;;11.47;100.00;97371.78;5067049;28;20055;-81
2022/10/01 03:16:11;;;;;;;23.40;6.78;;;;;;;11.28;100.00;97362.34;5063658;28;20061;-82
2022/10/01 03:18:38;;;;;;;25.75;8.10;;;;;;;11.42;100.00;97352.28;5070693;28;20035;-81
2022/10/01 03:21:03;;;;;;;15.90;7.00;;;;;;;11.47;100.00;97369.13;5064291;28;20032;-82
2022/10/01 03:23:29;;;;;;;21.60;8.10;;;;;;;11.45;100.00;97369.41;5063848;28;20109;-81
2022/10/01 03:25:55;;;;;;;24.70;9.02;;;;;;;11.60;100.00;97352.25;5064445;28;20488;-80
2022/10/01 03:28:20;;;;;;;20.60;8.30;;;;;;;11.57;100.00;97377.97;5064414;28;20044;-81
2022/10/01 03:30:46;;;;;;;18.05;8.25;;;;;;;11.45;100.00;97368.59;5065754;28;20047;-81
2022/10/01 03:33:11;;;;;;;18.95;7.97;;;;;;;11.57;100.00;97371.94;5065423;28;20055;-81
2022/10/01 03:35:38;;;;;;;33.65;8.07;;;;;;;11.60;100.00;97378.53;5061088;28;20445;-80
2022/10/01 03:38:03;;;;;;;22.38;7.43;;;;;;;11.52;100.00;97380.53;5059418;28;20119;-81
2022/10/01 03:40:32;;;;;;;21.85;7.22;;;;;;;11.38;100.00;97381.88;5061615;28;20029;-81
2022/10/01 03:42:57;;;;;;;31.95;7.07;;;;;;;11.53;100.00;97384.75;5062785;28;20140;-82
2022/10/01 03:45:24;;;;;;;26.48;6.78;;;;;;;11.42;100.00;97378.56;5063584;28;20060;-81
2022/10/01 03:47:51;;;;;;;20.42;5.72;;;;;;;11.37;100.00;97386.38;5061718;28;20039;-80
2022/10/01 03:50:16;;;;;;;23.90;6.75;;;;;;;11.27;100.00;97394.06;5058006;28;20029;-81
2022/10/01 03:52:44;;;;;;;20.20;6.72;;;;;;;11.28;100.00;97390.41;5057495;28;20103;-81
2022/10/01 03:55:10;;;;;;;25.00;6.53;;;;;;;11.09;100.00;97397.75;5059414;28;20029;-81
2022/10/01 03:57:36;;;;;;;24.00;5.47;;;;;;;11.06;100.00;97406.09;5063616;28;20075;-81
2022/10/01 04:00:03;;;;;;;20.30;5.68;;;;;;;11.21;100.00;97410.81;5065514;28;20032;-80
2022/10/01 04:02:29;;;;;;;24.55;5.18;;;;;;;11.13;100.00;97420.69;5058995;28;20029;-81
2022/10/01 04:04:54;;;;;;;21.80;5.05;;;;;;;11.35;100.00;97422.59;5062463;28;20458;-80
2022/10/01 04:07:19;;;;;;;18.50;5.63;;;;;;;11.33;100.00;97423.84;5063801;28;20443;-80
2022/10/01 04:09:45;;;;;;;23.63;5.00;;;;;;;11.16;100.00;97423.84;5062465;28;20051;-81
2022/10/01 04:12:11;;;;;;;21.52;4.63;;;;;;;11.29;100.00;97439.28;5064132;28;20021;-81
2022/10/01 04:14:36;;;;;;;25.05;5.05;;;;;;;11.24;100.00;97440.03;5062668;28;20486;-80
2022/10/01 04:17:02;;;;;;;15.52;4.25;;;;;;;11.22;100.00;97423.72;5063535;28;20466;-82
2022/10/01 04:19:27;;;;;;;17.73;5.32;;;;;;;11.13;100.00;97422.50;5060069;28;20029;-81
2022/10/01 04:21:53;;;;;;;20.65;4.85;;;;;;;11.36;100.00;97444.38;5062325;28;20059;-81
2022/10/01 04:24:18;;;;;;;26.15;6.10;;;;;;;11.38;100.00;97437.06;5063633;28;20031;-82
2022/10/01 04:26:44;;;;;;;21.38;4.47;;;;;;;11.26;100.00;97456.34;5062952;28;20029;-81
2022/10/01 04:29:10;;;;;;;24.67;4.88;;;;;;;11.22;100.00;97443.91;5059468;28;20032;-81
2022/10/01 04:31:35;;;;;;;14.40;4.13;;;;;;;11.32;100.00;97456.41;5064978;28;20040;-82
2022/10/01 04:34:02;;;;;;;26.35;4.50;;;;;;;11.32;100.00;97445.91;5061688;28;20102;-81
2022/10/01 04:36:27;;;;;;;30.35;5.13;;;;;;;11.42;100.00;97459.22;5059515;28;20029;-81
2022/10/01 04:38:54;;;;;;;24.42;4.38;;;;;;;11.56;100.00;97463.09;5063576;28;20386;-81
2022/10/01 04:41:20;;;;;;;23.45;5.03;;;;;;;11.27;100.00;97455.28;5061416;28;20163;-80
2022/10/01 04:43:46;;;;;;;21.15;3.97;;;;;;;11.56;100.00;97470.97;5062331;28;20116;-81
2022/10/01 04:46:11;;;;;;;19.48;3.65;;;;;;;11.49;100.00;97485.31;5061207;28;20092;-81
2022/10/01 04:48:37;;;;;;;14.57;3.88;;;;;;;11.67;100.00;97477.19;5060746;28;20024;-81
2022/10/01 04:51:02;;;;;;;20.23;4.40;;;;;;;11.52;100.00;97472.50;5058230;28;20033;-80
2022/10/01 04:53:28;;;;;;;25.45;5.25;;;;;;;11.61;100.00;97487.88;5059185;28;20105;-81
2022/10/01 04:55:55;;;;;;;20.10;5.55;;;;;;;11.43;100.00;97494.97;5059338;28;20036;-81
2022/10/01 04:58:20;;;;;;;24.65;5.25;;;;;;;11.20;100.00;97499.31;5063010;28;20028;-81
2022/10/01 05:00:47;;;;;;;21.20;4.43;;;;;;;11.62;100.00;97506.00;5061620;28;20453;-82
2022/10/01 05:03:13;;;;;;;25.40;5.03;;;;;;;11.56;100.00;97501.72;5044115;28;20037;-81
2022/10/01 05:05:39;;;;;;;28.55;4.18;;;;;;;11.66;100.00;97516.84;5063962;28;20082;-82
2022/10/01 05:08:05;;;;;;;22.20;4.63;;;;;;;11.65;100.00;97507.38;5060578;28;20024;-82
2022/10/01 05:10:31;;;;;;;16.17;3.15;;;;;;;11.80;100.00;97528.66;5060632;28;20108;-81
2022/10/01 05:12:57;;;;;;;23.48;3.70;;;;;;;11.55;100.00;97521.94;5044692;28;20523;-82
2022/10/01 05:15:22;;;;;;;21.08;4.28;;;;;;;11.63;100.00;97530.47;5060743;28;20407;-81
2022/10/01 05:17:48;;;;;;;18.63;3.72;;;;;;;11.64;100.00;97518.94;5065449;28;20025;-81
2022/10/01 05:20:20;;;;;;;21.38;3.47;;;;;;;11.63;100.00;97525.22;5065658;28;20036;-81
2022/10/01 05:22:48;;;;;;;14.95;4.07;;;;;;;11.72;100.00;97539.53;5060356;28;20029;-81
2022/10/01 05:25:14;;;;;;;20.33;3.55;;;;;;;11.53;100.00;97534.53;5064310;28;20033;-81
2022/10/01 05:27:40;;;;;;;21.27;4.10;;;;;;;11.53;100.00;97533.75;5060373;28;20039;-81
2022/10/01 05:30:10;;;;;;;19.65;4.13;;;;;;;11.69;100.00;97547.91;5061988;28;20036;-81
2022/10/01 05:32:37;;;;;;;10.27;3.13;;;;;;;11.61;100.00;97541.22;5061879;28;20028;-81
2022/10/01 05:35:05;;;;;;;16.40;3.22;;;;;;;11.53;100.00;97549.50;5060948;28;21554;-79
2022/10/01 05:37:32;;;;;;;16.05;3.20;;;;;;;11.52;100.00;97546.06;5061296;28;20025;-80
2022/10/01 05:39:57;;;;;;;18.27;3.45;;;;;;;11.43;100.00;97550.91;5062541;28;20036;-81
2022/10/01 05:42:26;;;;;;;13.95;3.28;;;;;;;11.39;100.00;97548.97;5064525;28;20039;-81
2022/10/01 05:44:51;;;;;;;15.88;3.63;;;;;;;11.26;100.00;97553.50;5059936;28;20037;-81
2022/10/01 05:47:19;;;;;;;14.57;3.33;;;;;;;11.20;100.00;97553.66;5061957;28;20395;-81
2022/10/01 05:49:45;;;;;;;15.25;3.25;;;;;;;11.35;100.00;97553.94;5062067;28;20021;-81
2022/10/01 05:52:11;;;;;;;15.27;3.15;;;;;;;11.33;100.00;97565.69;5064404;28;20489;-81
2022/10/01 05:54:37;;;;;;;21.40;3.72;;;;;;;11.29;100.00;97557.47;5063125;28;20431;-80
2022/10/01 05:57:04;;;;;;;19.13;3.33;;;;;;;11.24;100.00;97563.47;5064683;28;20124;-81
2022/10/01 05:59:29;;;;;;;16.08;3.13;;;;;;;11.45;100.00;97553.31;5043117;28;20029;-81
2022/10/01 06:01:55;;;;;;;22.73;3.88;;;;;;;11.41;100.00;97578.47;5065405;28;20090;-81
2022/10/01 06:04:20;;;;;;;16.00;3.35;;;;;;;11.31;100.00;97573.03;5069760;28;20043;-81
2022/10/01 06:06:46;;;;;;;19.80;4.18;;;;;;;11.29;100.00;97587.19;5064349;28;20024;-81
2022/10/01 06:09:12;;;;;;;14.52;3.33;;;;;;;11.50;100.00;97592.81;5064280;28;20037;-82
2022/10/01 06:11:38;;;;;;;28.38;5.95;;;;;;;11.25;100.00;97586.06;5061978;28;20040;-81
2022/10/01 06:14:06;;;;;;;12.40;3.92;;;;;;;11.24;100.00;97589.72;5063146;28;20041;-80
2022/10/01 06:16:31;;;;;;;25.92;3.53;;;;;;;11.26;100.00;97589.47;5065252;28;20024;-81
2022/10/01 06:18:57;;;;;;;20.73;4.00;;;;;;;11.42;100.00;97596.59;5066578;28;20078;-81
2022/10/01 06:21:24;;;;;;;18.88;3.67;;;;;;;11.15;100.00;97591.13;5065647;28;20412;-80
2022/10/01 06:23:50;;;;;;;21.50;3.85;;;;;;;11.37;100.00;97608.84;5061280;28;20051;-81
2022/10/01 06:26:16;;;;;;;20.25;4.25;;;;;;;11.48;100.00;97621.16;5061742;28;20085;-81
2022/10/01 06:28:42;;;;;;;18.25;3.20;;;;;;;11.21;100.00;97605.16;5065283;28;20036;-81
2022/10/01 06:31:11;;;;;;;15.15;3.33;;;;;;;11.21;100.00;97608.59;5065194;28;20028;-81
2022/10/01 06:33:36;;;;;;;11.95;3.08;;;;;;;11.34;100.00;97628.53;5064775;28;20374;-81
2022/10/01 06:36:03;;;;;;;19.55;4.65;;;;;;;11.36;100.00;97628.28;5063425;28;20029;-81
2022/10/01 06:38:29;;;;;;;13.77;3.20;;;;;;;11.48;100.00;97618.53;5059673;28;20029;-82
2022/10/01 06:40:57;;;;;;;19.08;3.55;;;;;;;11.55;100.00;97632.31;5062698;28;20032;-81
2022/10/01 06:43:24;;;;;;;15.98;3.67;;;;;;;11.65;100.00;97621.19;5059310;28;20546;-82
2022/10/01 06:45:50;;;;;;;17.80;4.63;;;;;;;11.64;100.00;97624.06;5065813;28;20480;-81
2022/10/01 06:48:18;;;;;;;16.70;3.55;;;;;;;11.70;100.00;97633.63;5065119;28;20043;-83
2022/10/01 06:50:45;;;;;;;20.45;3.75;;;;;;;11.53;100.00;97638.84;5064983;28;20029;-84
2022/10/01 06:53:17;;;;;;;16.33;4.00;;;;;;;11.67;100.00;97644.59;5064977;28;20387;-87
2022/10/01 06:55:43;;;;;;;21.15;3.95;;;;;;;11.67;100.00;97642.75;5043618;28;20036;-85
2022/10/01 06:58:14;;;;;;;24.33;4.22;;;;;;;11.69;100.00;97637.28;5066789;28;20409;-86
2022/10/01 07:00:40;;;;;;;19.98;5.28;;;;;;;11.75;100.00;97643.44;5046759;28;20028;-83
2022/10/01 07:03:10;;;;;;;14.82;3.83;;;;;;;11.83;100.00;97646.47;5046071;28;20029;-83
2022/10/01 07:05:37;;;;;;;25.30;5.45;;;;;;;11.81;100.00;97661.69;5062793;28;20031;-83
2022/10/01 07:08:03;;;;;;;23.95;3.97;;;;;;;11.88;100.00;97658.09;5071745;28;20036;-83
2022/10/01 07:10:29;;;;;;;16.38;4.35;;;;;;;11.91;100.00;97649.75;5065859;28;20029;-85
2022/10/01 07:12:55;;;;;;;22.48;4.45;;;;;;;11.94;100.00;97659.78;5066652;28;20027;-85
2022/10/01 07:15:21;;;;;;;23.10;3.40;;;;;;;11.80;100.00;97669.81;5056932;28;20053;-85
2022/10/01 07:17:49;;;;;;;19.10;3.92;;;;;;;11.66;100.00;97635.91;5057412;28;20456;-85
2022/10/01 07:20:20;;;;;;;15.25;3.30;;;;;;;11.84;100.00;97670.91;5068395;28;20116;-87
2022/10/01 07:22:54;;;;;;;15.88;3.85;;;;;;;11.49;100.00;97638.50;5074807;28;20039;-85
2022/10/01 07:25:20;;;;;;;14.27;3.55;;;;;;;11.67;100.00;97663.00;5061694;28;20678;-83
2022/10/01 07:27:45;;;;;;;20.00;4.03;;;;;;;11.98;100.00;97681.94;5063333;28;20029;-81
2022/10/01 07:30:13;;;;;;;20.98;3.25;;;;;;;11.98;100.00;97663.53;5062081;28;20504;-82
2022/10/01 07:32:44;;;;;;;16.60;3.70;;;;;;;11.88;100.00;97676.50;5061656;28;20024;-82
2022/10/01 07:35:10;;;;;;;20.15;3.75;;;;;;;11.62;100.00;97673.44;5037239;28;20392;-82
2022/10/01 07:37:36;;;;;;;19.80;3.53;;;;;;;11.69;100.00;97674.06;5062767;28;20021;-82
2022/10/01 07:40:02;;;;;;;20.05;3.85;;;;;;;11.68;100.00;97696.13;5057137;28;20491;-81
2022/10/01 07:42:28;;;;;;;17.13;2.95;;;;;;;11.63;100.00;97685.53;5058979;28;20063;-81
2022/10/01 07:44:55;;;;;;;12.88;3.10;;;;;;;11.78;100.00;97693.69;5060415;28;20025;-82
2022/10/01 07:47:21;;;;;;;23.00;3.40;;;;;;;11.72;100.00;97694.63;5057063;28;20024;-82
2022/10/01 07:49:47;;;;;;;22.42;3.03;;;;;;;11.78;100.00;97698.94;5061099;28;20033;-81
2022/10/01 07:52:13;;;;;;;16.85;3.58;;;;;;;11.81;100.00;97695.88;5045544;28;20034;-81
2022/10/01 07:54:38;;;;;;;15.13;3.47;;;;;;;11.78;100.00;97691.06;5063831;28;20032;-81
2022/10/01 07:57:04;;;;;;;10.57;2.90;;;;;;;11.74;100.00;97692.56;5041488;28;20032;-80
2022/10/01 07:59:30;;;;;;;22.42;3.03;;;;;;;11.85;100.00;97704.88;5061372;28;20078;-81
2022/10/01 08:01:55;;;;;;;14.73;2.60;;;;;;;11.67;100.00;97711.09;5064688;28;20040;-81
2022/10/01 08:07:07;;;;;;;18.92;3.15;;;;;;;11.98;100.00;97716.13;5061615;28;20079;-81
2022/10/01 08:09:34;;;;;;;20.58;3.58;;;;;;;12.08;100.00;97723.41;5060153;28;20543;-80
2022/10/01 08:12:01;;;;;;;14.95;3.00;;;;;;;11.71;100.00;97721.94;5060213;28;20073;-80
2022/10/01 08:14:27;;;;;;;19.98;3.15;;;;;;;11.98;100.00;97718.75;5060844;28;20041;-79
2022/10/01 08:16:56;;;;;;;13.48;2.65;;;;;;;12.00;100.00;97720.13;5058941;28;20086;-81
2022/10/01 08:19:23;;;;;;;15.80;3.20;;;;;;;11.81;100.00;97721.34;5061004;28;20067;-81
2022/10/01 08:21:50;;;;;;;14.27;3.70;;;;;;;12.17;100.00;97731.72;5064272;28;20051;-80
2022/10/01 08:24:18;;;;;;;16.65;3.65;;;;;;;12.17;100.00;97718.56;5063229;28;20409;-80
2022/10/01 08:26:44;;;;;;;12.93;2.60;;;;;;;12.05;100.00;97743.13;5059950;28;20051;-80
2022/10/01 08:29:10;;;;;;;8.50;2.35;;;;;;;12.16;100.00;97738.00;5062389;28;20048;-80
2022/10/01 08:31:35;;;;;;;11.48;2.80;;;;;;;12.17;100.00;97731.72;5062256;28;20033;-81
2022/10/01 08:34:03;;;;;;;18.27;2.83;;;;;;;12.37;100.00;97750.47;5058237;28;20523;-80
2022/10/01 08:36:29;;;;;;;13.60;2.90;;;;;;;12.47;100.00;97764.84;5059361;28;20032;-82
2022/10/01 08:38:55;;;;;;;14.55;2.85;;;;;;;12.38;100.00;97753.91;5058069;28;20074;-81
2022/10/01 08:41:50;;;;;;;15.63;2.97;;;;;;;12.55;100.00;97764.44;5056805;28;20430;-81
2022/10/01 08:44:22;;;;;;;13.32;3.03;;;;;;;12.41;100.00;97780.56;5048563;28;20094;-81
2022/10/01 08:46:49;;;;;;;16.25;2.95;;;;;;;12.34;100.00;97769.38;5057715;28;20398;-81
2022/10/01 08:49:14;;;;;;;14.07;3.55;;;;;;;12.73;100.00;97786.31;5057235;28;20029;-80
2022/10/01 08:51:51;;;;;;;17.27;3.33;;;;;;;12.73;100.00;97786.31;5062893;28;20146;-83
2022/10/01 08:54:55;;;;;;;13.30;2.72;;;;;;;13.10;100.00;97780.56;5062695;28;20035;-83
2022/10/01 08:57:24;;;;;;;11.18;2.88;;;;;;;12.70;100.00;97777.84;5052940;28;20132;-81
2022/10/01 08:59:55;;;;;;;18.80;3.25;;;;;;;13.02;100.00;97767.81;5061476;28;20036;-83
2022/10/01 09:02:32;;;;;;;14.00;4.10;;;;;;;13.18;100.00;97772.25;5059851;28;20107;-82
2022/10/01 09:05:15;;;;;;;15.65;3.38;;;;;;;13.18;100.00;97793.31;5061226;28;20025;-83
2022/10/01 09:08:16;;;;;;;17.02;3.35;;;;;;;13.41;100.00;97799.44;5058786;28;20028;-83
2022/10/01 09:11:05;;;;;;;13.38;2.75;;;;;;;13.75;100.00;97801.97;5057203;28;20106;-83
2022/10/01 09:13:40;;;;;;;14.70;2.75;;;;;;;13.77;100.00;97814.91;5056825;28;20032;-83
2022/10/01 09:16:24;;;;;;;13.32;2.75;;;;;;;13.36;100.00;97815.16;5044777;28;20067;-81
2022/10/01 09:19:00;;;;;;;11.80;2.97;;;;;;;13.44;100.00;97817.41;5061751;28;20104;-81
2022/10/01 09:21:49;;;;;;;14.60;3.38;;;;;;;14.01;100.00;97810.19;5057028;28;20033;-81
2022/10/01 09:24:23;;;;;;;15.32;3.03;;;;;;;14.09;100.00;97801.81;5059815;28;20474;-82
2022/10/01 09:26:49;;;;;;;10.73;2.70;;;;;;;13.88;100.00;97800.00;5062281;28;20032;-81
2022/10/01 09:29:24;;;;;;;26.17;3.10;;;;;;;13.87;100.00;97801.06;5063815;28;20517;-82
2022/10/01 09:31:52;;;;;;;16.65;3.80;;;;;;;14.32;100.00;97815.78;5062163;28;20070;-81
2022/10/01 09:34:41;;;;;;;14.90;3.05;;;;;;;14.13;100.00;97833.81;5062753;28;20062;-81
2022/10/01 09:37:24;;;;;;;13.40;3.53;;;;;;;14.10;100.00;97823.75;5056632;28;20089;-82
2022/10/01 09:40:27;;;;;;;14.05;3.15;;;;;;;14.32;100.00;97836.88;5059385;28;20029;-84
2022/10/01 09:42:53;;;;;;;10.55;2.75;;;;;;;14.10;100.00;97827.16;5062335;28;20044;-84
2022/10/01 09:45:20;;;;;;;20.10;3.60;;;;;;;13.82;100.00;97828.97;5059362;28;20112;-82
2022/10/01 09:47:49;;;;;;;11.10;3.13;;;;;;;13.77;100.00;97850.00;5065765;28;20036;-83
2022/10/01 09:50:19;;;;;;;11.98;3.05;;;;;;;13.77;100.00;97831.56;5060956;28;20033;-82
2022/10/01 09:52:48;;;;;;;16.45;3.28;;;;;;;14.10;100.00;97834.31;5063371;28;20115;-82
2022/10/01 09:55:17;;;;;;;10.25;3.60;;;;;;;14.00;100.00;97866.63;5065554;28;20469;-83
2022/10/01 09:57:52;;;;;;;14.50;4.43;;;;;;;13.35;100.00;97834.63;5056610;28;20037;-83
2022/10/01 10:00:24;;;;;;;16.20;4.35;;;;;;;13.83;100.00;97827.94;5063208;28;20363;-85
2022/10/01 10:02:52;;;;;;;16.00;5.00;;;;;;;14.01;100.00;97841.84;5053716;28;20032;-83
2022/10/01 10:05:19;;;;;;;17.08;4.30;;;;;;;14.05;100.00;97839.50;5062532;28;20037;-84
2022/10/01 10:07:49;;;;;;;11.30;3.60;;;;;;;13.74;100.00;97852.34;5057466;28;20132;-83
2022/10/01 10:10:20;;;;;;;12.38;3.70;;;;;;;13.77;100.00;97842.09;5059456;28;20083;-86
2022/10/01 10:12:47;;;;;;;11.60;3.00;;;;;;;14.12;100.00;97846.19;5061624;28;20359;-84
2022/10/01 10:15:19;;;;;;;15.65;4.47;;;;;;;14.07;100.00;97853.28;5055204;28;20410;-85
2022/10/01 10:17:50;;;;;;;12.90;3.92;;;;;;;14.40;100.00;97859.41;5060844;28;20535;-85
2022/10/01 10:20:44;;;;;;;11.35;3.75;;;;;;;14.20;100.00;97886.41;5058742;28;20086;-86
2022/10/01 10:23:14;;;;;;;11.38;3.50;;;;;;;14.73;100.00;97877.97;5057838;28;20064;-85
2022/10/01 10:25:39;;;;;;;14.30;3.55;;;;;;;14.80;100.00;97863.50;5055536;28;20051;-86
2022/10/01 10:28:18;;;;;;;9.55;2.95;;;;;;;14.62;100.00;97867.28;5057757;28;20025;-86
2022/10/01 10:30:44;;;;;;;8.13;2.92;;;;;;;14.99;100.00;97868.41;5058946;28;20379;-85
2022/10/01 10:33:12;;;;;;;13.50;2.90;;;;;;;14.87;100.00;97850.09;5060743;28;20547;-85
2022/10/01 10:35:39;;;;;;;11.02;3.42;;;;;;;15.14;100.00;97887.03;5057997;28;20025;-85
2022/10/01 10:38:05;;;;;;;14.35;3.28;;;;;;;15.64;100.00;97893.97;5056029;28;20031;-85
2022/10/01 10:40:40;;;;;;;14.38;3.97;;;;;;;15.13;100.00;97882.00;5055802;28;20597;-84
2022/10/01 10:43:13;;;;;;;14.20;4.60;;;;;;;15.11;100.00;97915.81;5064257;28;20029;-85
2022/10/01 10:45:45;;;;;;;19.63;4.18;;;;;;;15.54;100.00;97898.16;5042812;28;20037;-83
2022/10/01 10:48:17;;;;;;;13.10;4.22;;;;;;;15.19;100.00;97896.88;5061061;28;20390;-84
2022/10/01 10:50:45;;;;;;;12.88;3.30;;;;;;;15.59;100.00;97904.53;5045043;28;20399;-85
2022/10/01 10:53:23;;;;;;;14.23;3.50;;;;;;;15.60;100.00;97912.19;5045730;28;20453;-84
2022/10/01 10:55:59;;;;;;;13.43;3.70;;;;;;;16.00;100.00;97915.38;5062180;28;20482;-85
2022/10/01 10:58:32;;;;;;;8.93;3.10;;;;;;;15.81;100.00;97923.72;5064870;28;20021;-84
2022/10/01 11:01:12;;;;;;;8.88;2.90;;;;;;;15.69;100.00;97933.69;5061003;28;20032;-85
2022/10/01 11:03:47;;;;;;;9.55;2.90;;;;;;;16.08;100.00;97930.75;5062595;28;20439;-84
2022/10/01 11:06:15;;;;;;;11.50;3.42;;;;;;;15.96;100.00;97940.75;5059337;28;20398;-85
2022/10/01 11:08:42;;;;;;;11.40;3.72;;;;;;;15.98;100.00;97941.28;5061075;28;20033;-84
2022/10/01 11:11:38;;;;;;;11.73;4.38;;;;;;;15.50;100.00;97943.88;5065338;28;20498;-85
2022/10/01 11:14:15;;;;;;;8.60;2.72;;;;;;;14.84;100.00;97948.34;5040289;28;20045;-86
2022/10/01 11:17:28;;;;;;;10.90;3.05;;;;;;;15.23;100.00;97958.75;5054197;28;20051;-85
2022/10/01 11:20:18;;;;;;;14.18;3.47;;;;;;;14.85;100.00;97961.31;4980352;28;20034;-86
2022/10/01 11:22:51;;;;;;;7.97;3.00;;;;;;;15.19;100.00;97976.16;5057896;28;20112;-87
2022/10/01 11:25:37;;;;;;;10.73;4.57;;;;;;;15.24;100.00;97962.97;5064470;28;20040;-87
2022/10/01 11:28:17;;;;;;;11.77;3.28;;;;;;;15.93;100.00;97975.69;5058250;28;20032;-86
2022/10/01 11:30:55;;;;;;;13.88;3.70;;;;;;;16.01;100.00;97974.38;5062882;28;20386;-87
2022/10/01 11:33:28;;;;;;;8.38;3.22;;;;;;;16.63;100.00;97962.19;5061082;28;20036;-87
2022/10/01 11:36:03;;;;;;;7.80;2.90;;;;;;;17.11;100.00;97974.53;5065613;28;20025;-86